Overview Statistics Trail Chart Weather Telemetry Raw packets
 

This is the latest recevied weather packets stored in our database for station/object KJ5FA-10. If no packets are shown the sender has not sent any weather packets the latest 10 day(s).

<< 6 7 8 9 10 11 12 >>
Time Temp. Humidity Pressure Rain* Wind** Luminosity Snow
1788333384 25.56° C 82% 1017.6 hPa 0 mm - - -
1788333024 25.56° C 82% 1017.5 hPa 0 mm - - -
1788332249 25.56° C 82% 1017.7 hPa 0 mm - - -
1788331349 25.56° C 82% 1017.4 hPa 0 mm - - -
1788330449 25.56° C 81% 1017.5 hPa 0 mm - - -
1788329549 26.11° C 80% 1017.7 hPa 0 mm - - -
1788328649 26.11° C 80% 1017.2 hPa 0 mm - - -
1788326849 26.67° C 77% 1017.3 hPa 0 mm - - -
1788325049 27.22° C 74% 1016.9 hPa 0 mm - - -
1788324149 27.22° C 72% 1016.9 hPa 0 mm - - -
1788323250 27.78° C 70% 1016.9 hPa 0 mm - - -
1788322350 28.33° C 68% 1016.9 hPa 0 mm - - -
1788321449 28.89° C 66% 1016.7 hPa 0 mm - - -
1788320550 29.44° C 63% 1016.8 hPa 0 mm - - -
1788319648 28.89° C 63% 1016.8 hPa 0 mm - - -
1788318749 28.89° C 64% 1016.7 hPa 0 mm - - -
1788317850 29.44° C 61% 1016.5 hPa 0 mm - - -
1788316949 29.44° C 60% 1016.3 hPa 0 mm - - -
1788315149 30° C 58% 1016 hPa 0 mm - - -
1788314249 30° C 57% 1015.8 hPa 0 mm - - -
1788312449 31.11° C 53% 1015.4 hPa 0 mm - - -
1788311549 31.67° C 51% 1015.3 hPa 0 mm - - -
1788310650 32.22° C 50% 1015.4 hPa 0 mm - - -
1788309749 32.78° C 49% 1015.5 hPa 0 mm - - -
1788308848 32.78° C 48% 1015.5 hPa 0 mm - - -

* Rain latest hour (hover to see other rain measurements)
** Current wind speed in m/s (hover to see current wind gust speed)